Airfield :
LOGIN :

Register | Disclaimer

   EN    FR    IT 

 










Legend :    VFR   Marginal VFR   IFR   Intensive IFR   Very Intensive IFR
Visi :
Ceiling :
>= 8 km
>= 3000ft
5 to 8 km
1000 to 3000 ft
1500m to 5 km
500 to 1000 ft
800 to 1500m
200 to 500 ft
< 800m
< 200 ft
Symbols :   Thunderstorms  Fog  Heavy snow  Heavy precipitations  Wind > 20 kt
SIGMETs :     Misc.  Thunderstorms  Icing  Turbulence  Mountain Waves  Volcanic Ashes







- Airport Elevation : 266 ft
- IATA code : NCL
- Download approach charts


EGNT - Newcastle

CURRENT METAR :
  • 241220Z 08009KT 050V110 6000 OVC007 10/09 Q0994

EXPIRED METARs :
  • 241150Z 08008KT 030V120 6000 OVC007 10/09 Q0995
  • 241120Z 07010KT 6000 OVC007 10/09 Q0995
  • 241050Z 07011KT 6000 BKN008 10/09 Q0995
  • 241020Z 09010KT 060V140 6000 BKN011 11/09 Q0995
  • 240950Z 08010KT 060V120 8000 BKN014 11/09 Q0995
  • 240920Z 10009KT 070V150 8000 BKN014 11/11 Q0995

TAF AMD TAF EGNT
Valid from the 24 at 12:00 until the 25 at 12:00 UTC


241212Z 2412/2512 09009KT 6000 OVC007
BECMG 2412/2415 9999
PROB30
TEMPO 2412/2418 SCT007 BKN010
TEMPO 2415/2420 9000
BECMG 2418/2421 SCT025
BECMG 2421/2424 20010KT
BECMG 2503/2506 14004KT
BECMG 2509/2512 6000 RA BKN004
ATIS : +44 191 214 3400
No reported NOTAMs for that airfield.



MET'MAP, your aeronautical weather chart ! - Copyright ORBIFLY December 2007 - Disclaimer

ORBIFLY MET'MAP TEAM :

Programming & Development : Alexandra Zaïnal
Concept & Development : Baudouin d'Aumeries
Co-Development & Prog : Marc-Olivier Méhu
Technical & hardware support : Manuel Goepfert

Contact : metmap@orbifly.com




SOURCES & CREDITS :

   NOAA